Time,TemperatureF,DewpointF,PressureIn,WindDirection,WindDirectionDegrees,WindSpeedMPH,WindSpeedGustMPH,Humidity,HourlyPrecipIn,Conditions,Clouds,dailyrainin,SoftwareType,DateUTC
2013-08-27 00:00:00,67.2,64.9,30.17,SSW,196,0.0,0.0,90,0.00,,,0.00,dv,2013-08-27 04:00:00,
2013-08-27 00:05:00,67.1,64.8,30.17,SSW,195,0.0,0.0,90,0.00,,,0.00,dv,2013-08-27 04:05:00,
2013-08-27 00:10:00,67.0,64.7,30.16,SSW,196,0.0,0.0,90,0.00,,,0.00,dv,2013-08-27 04:10:00,
2013-08-27 00:15:00,66.9,64.6,30.16,SSW,195,0.0,0.0,90,0.00,,,0.00,dv,2013-08-27 04:15:00,
2013-08-27 00:20:00,66.9,64.6,30.16,SSW,195,0.0,0.0,90,0.00,,,0.00,dv,2013-08-27 04:20:00,
2013-08-27 00:25:00,66.8,64.5,30.17,SSW,196,0.0,0.0,90,0.00,,,0.00,dv,2013-08-27 04:25:00,
2013-08-27 00:30:00,66.8,64.5,30.16,SSW,196,0.0,0.0,90,0.00,,,0.00,dv,2013-08-27 04:30:00,
2013-08-27 00:35:00,66.7,64.4,30.16,SSW,195,0.0,0.0,90,0.00,,,0.00,dv,2013-08-27 04:35:00,
2013-08-27 00:45:00,66.5,64.2,30.16,SSW,196,0.0,0.0,90,0.00,,,0.00,dv,2013-08-27 04:45:00,
2013-08-27 00:50:00,66.5,64.2,30.16,SSW,196,0.0,0.0,90,0.00,,,0.00,dv,2013-08-27 04:50:00,
2013-08-27 00:55:00,66.5,64.2,30.16,SSW,196,0.0,0.0,90,0.00,,,0.00,dv,2013-08-27 04:55:00,
2013-08-27 01:00:00,66.4,64.1,30.15,SSW,196,0.0,0.0,90,0.00,,,0.00,dv,2013-08-27 05:00:00,
2013-08-27 01:05:00,66.3,64.0,30.16,SSW,195,0.0,0.0,90,0.00,,,0.00,dv,2013-08-27 05:05:00,
2013-08-27 01:10:00,66.3,64.0,30.16,SSW,196,0.0,0.0,90,0.00,,,0.00,dv,2013-08-27 05:10:00,
2013-08-27 01:15:00,66.2,63.9,30.16,SSW,195,0.0,0.0,90,0.00,,,0.00,dv,2013-08-27 05:15:00,
2013-08-27 01:20:00,66.1,64.0,30.16,SSW,195,0.0,0.0,91,0.00,,,0.00,dv,2013-08-27 05:20:00,
2013-08-27 01:25:00,66.1,63.8,30.16,SSW,195,0.0,0.0,90,0.00,,,0.00,dv,2013-08-27 05:25:00,
2013-08-27 01:30:00,66.0,63.7,30.15,SSW,196,0.0,0.0,90,0.00,,,0.00,dv,2013-08-27 05:30:00,
2013-08-27 01:35:00,65.9,63.6,30.16,SSW,195,0.0,0.0,90,0.00,,,0.00,dv,2013-08-27 05:35:00,
2013-08-27 01:40:00,65.9,63.8,30.16,SSW,195,0.0,0.0,91,0.00,,,0.00,dv,2013-08-27 05:40:00,
2013-08-27 01:45:00,65.7,63.4,30.15,SSW,195,0.0,0.0,90,0.00,,,0.00,dv,2013-08-27 05:45:00,
2013-08-27 01:50:00,65.6,63.3,30.15,SSW,195,0.0,0.0,90,0.00,,,0.00,dv,2013-08-27 05:50:00,
2013-08-27 01:55:00,65.5,63.2,30.15,SSW,195,0.0,0.0,90,0.00,,,0.00,dv,2013-08-27 05:55:00,
2013-08-27 02:00:00,65.3,63.0,30.15,SSW,195,0.0,0.0,90,0.00,,,0.00,dv,2013-08-27 06:00:00,
2013-08-27 02:05:00,65.2,62.9,30.15,SSW,196,0.0,0.0,90,0.00,,,0.00,dv,2013-08-27 06:05:00,
2013-08-27 02:10:00,65.2,62.9,30.16,SSW,195,0.0,0.0,90,0.00,,,0.00,dv,2013-08-27 06:10:00,
2013-08-27 02:15:00,65.1,63.0,30.15,SSW,195,0.0,0.0,91,0.00,,,0.00,dv,2013-08-27 06:15:00,
2013-08-27 02:20:00,65.0,62.7,30.15,SSW,195,0.0,0.0,90,0.00,,,0.00,dv,2013-08-27 06:20:00,
2013-08-27 02:25:00,64.9,62.6,30.15,SSW,196,0.0,0.0,90,0.00,,,0.00,dv,2013-08-27 06:25:00,
2013-08-27 02:30:00,64.9,62.8,30.15,SSW,195,0.0,0.0,91,0.00,,,0.00,dv,2013-08-27 06:30:00,
2013-08-27 02:35:00,64.9,62.8,30.15,SSW,196,0.0,0.0,91,0.00,,,0.00,dv,2013-08-27 06:35:00,
2013-08-27 02:40:00,64.9,62.8,30.14,SSW,195,0.0,0.0,91,0.00,,,0.00,dv,2013-08-27 06:40:00,
2013-08-27 02:45:00,64.9,62.8,30.14,SSW,195,0.0,0.0,91,0.00,,,0.00,dv,2013-08-27 06:45:00,
2013-08-27 02:50:00,64.8,62.7,30.14,SSW,195,0.0,0.0,91,0.00,,,0.00,dv,2013-08-27 06:50:00,
2013-08-27 02:55:00,64.7,62.6,30.14,SSW,195,0.0,0.0,91,0.00,,,0.00,dv,2013-08-27 06:55:00,
2013-08-27 03:00:00,64.7,62.9,30.14,SSW,195,0.0,0.0,92,0.00,,,0.00,dv,2013-08-27 07:00:00,
2013-08-27 03:05:00,64.8,63.0,30.13,SSW,195,0.0,0.0,92,0.00,,,0.00,dv,2013-08-27 07:05:00,
2013-08-27 03:10:00,64.8,63.0,30.14,SSW,195,0.0,0.0,92,0.00,,,0.00,dv,2013-08-27 07:10:00,
2013-08-27 03:15:00,64.7,62.9,30.13,SSW,195,0.0,0.0,92,0.00,,,0.00,dv,2013-08-27 07:15:00,
2013-08-27 03:20:00,64.7,62.9,30.13,SSW,196,0.0,0.0,92,0.00,,,0.00,dv,2013-08-27 07:20:00,
2013-08-27 03:25:00,64.7,62.9,30.13,SSW,196,0.0,0.0,92,0.00,,,0.00,dv,2013-08-27 07:25:00,
2013-08-27 03:30:00,64.7,62.6,30.13,SSW,196,0.0,0.0,91,0.00,,,0.00,dv,2013-08-27 07:30:00,
2013-08-27 03:35:00,64.7,62.9,30.13,SSW,195,0.0,0.0,92,0.00,,,0.00,dv,2013-08-27 07:35:00,
2013-08-27 03:40:00,64.6,62.8,30.13,SSW,196,0.0,0.0,92,0.00,,,0.00,dv,2013-08-27 07:40:00,
2013-08-27 03:45:00,64.6,62.8,30.13,SSW,195,0.0,0.0,92,0.00,,,0.00,dv,2013-08-27 07:45:00,
2013-08-27 03:50:00,64.5,62.7,30.13,SSW,195,0.0,0.0,92,0.00,,,0.00,dv,2013-08-27 07:50:00,
2013-08-27 03:55:00,64.5,62.7,30.13,SSW,195,0.0,0.0,92,0.00,,,0.00,dv,2013-08-27 07:55:00,
2013-08-27 04:00:00,64.4,62.6,30.13,SSW,195,0.0,0.0,92,0.00,,,0.00,dv,2013-08-27 08:00:00,
2013-08-27 04:05:00,64.4,62.6,30.12,SSW,195,0.0,0.0,92,0.00,,,0.00,dv,2013-08-27 08:05:00,
2013-08-27 04:10:00,64.3,62.5,30.12,SSW,195,0.0,0.0,92,0.00,,,0.00,dv,2013-08-27 08:10:00,
2013-08-27 04:15:00,64.3,62.5,30.12,SSW,196,0.0,0.0,92,0.00,,,0.00,dv,2013-08-27 08:15:00,
2013-08-27 04:20:00,64.3,62.5,30.12,SSW,195,0.0,0.0,92,0.00,,,0.00,dv,2013-08-27 08:20:00,
2013-08-27 04:25:00,64.2,62.4,30.12,SSW,195,0.0,0.0,92,0.00,,,0.00,dv,2013-08-27 08:25:00,
2013-08-27 04:30:00,64.1,62.3,30.12,SSW,196,0.0,0.0,92,0.00,,,0.00,dv,2013-08-27 08:30:00,
2013-08-27 04:35:00,64.0,62.2,30.12,SSW,195,0.0,0.0,92,0.00,,,0.00,dv,2013-08-27 08:35:00,
2013-08-27 04:40:00,64.0,62.2,30.12,SSW,195,0.0,0.0,92,0.00,,,0.00,dv,2013-08-27 08:40:00,
2013-08-27 04:45:00,63.9,62.1,30.12,SSW,196,0.0,0.0,92,0.00,,,0.00,dv,2013-08-27 08:45:00,
2013-08-27 04:50:00,63.7,61.9,30.12,SSW,195,0.0,0.0,92,0.00,,,0.00,dv,2013-08-27 08:50:00,
2013-08-27 04:55:00,63.7,61.9,30.11,SSW,195,0.0,0.0,92,0.00,,,0.00,dv,2013-08-27 08:55:00,
2013-08-27 05:00:00,63.6,61.8,30.11,SSW,195,0.0,0.0,92,0.00,,,0.00,dv,2013-08-27 09:00:00,
2013-08-27 05:05:00,63.5,61.5,30.11,SSW,195,0.0,0.0,91,0.00,,,0.00,dv,2013-08-27 09:05:00,
2013-08-27 05:10:00,63.5,61.7,30.11,SSW,195,0.0,0.0,92,0.00,,,0.00,dv,2013-08-27 09:10:00,
2013-08-27 05:15:00,63.4,61.4,30.11,SSW,195,0.0,0.0,91,0.00,,,0.00,dv,2013-08-27 09:15:00,
2013-08-27 05:20:00,63.3,61.3,30.11,SSW,196,0.0,0.0,91,0.00,,,0.00,dv,2013-08-27 09:20:00,
2013-08-27 05:25:00,63.2,61.4,30.11,SSW,195,0.0,0.0,92,0.00,,,0.00,dv,2013-08-27 09:25:00,
2013-08-27 05:30:00,63.2,61.4,30.11,SSW,196,0.0,0.0,92,0.00,,,0.00,dv,2013-08-27 09:30:00,
2013-08-27 05:35:00,63.2,61.4,30.11,SSW,196,0.0,0.0,92,0.00,,,0.00,dv,2013-08-27 09:35:00,
2013-08-27 05:40:00,63.2,61.4,30.11,SSW,196,0.0,0.0,92,0.00,,,0.00,dv,2013-08-27 09:40:00,
2013-08-27 05:45:00,63.1,61.3,30.11,SSW,195,0.0,0.0,92,0.00,,,0.00,dv,2013-08-27 09:45:00,
2013-08-27 05:50:00,63.1,61.3,30.12,SSW,196,0.0,0.0,92,0.00,,,0.00,dv,2013-08-27 09:50:00,
2013-08-27 05:55:00,63.1,61.3,30.12,SSW,195,0.0,0.0,92,0.00,,,0.00,dv,2013-08-27 09:55:00,
2013-08-27 06:00:00,63.0,61.2,30.11,SSW,196,0.0,0.0,92,0.00,,,0.00,dv,2013-08-27 10:00:00,
2013-08-27 06:05:00,63.0,61.2,30.11,SSW,195,0.0,0.0,92,0.00,,,0.00,dv,2013-08-27 10:05:00,
2013-08-27 06:10:00,63.0,61.2,30.11,SSW,195,0.0,0.0,92,0.00,,,0.00,dv,2013-08-27 10:10:00,
2013-08-27 06:15:00,62.9,61.1,30.11,SSW,195,0.0,0.0,92,0.00,,,0.00,dv,2013-08-27 10:15:00,
2013-08-27 06:20:00,62.9,61.1,30.12,SSW,195,0.0,0.0,92,0.00,,,0.00,dv,2013-08-27 10:20:00,
2013-08-27 06:25:00,62.8,61.0,30.12,SSW,195,0.0,0.0,92,0.00,,,0.00,dv,2013-08-27 10:25:00,
2013-08-27 06:30:00,62.8,61.2,30.12,SSW,195,0.0,0.0,93,0.00,,,0.00,dv,2013-08-27 10:30:00,
2013-08-27 06:35:00,62.7,61.1,30.12,SSW,195,0.0,0.0,93,0.00,,,0.00,dv,2013-08-27 10:35:00,
2013-08-27 06:40:00,62.7,60.9,30.12,SSW,195,0.0,0.0,92,0.00,,,0.00,dv,2013-08-27 10:40:00,
2013-08-27 06:45:00,62.6,61.0,30.12,SSW,195,0.0,0.0,93,0.00,,,0.00,dv,2013-08-27 10:45:00,
2013-08-27 06:50:00,62.6,61.0,30.12,SSW,195,0.0,0.0,93,0.00,,,0.00,dv,2013-08-27 10:50:00,
2013-08-27 06:55:00,62.6,61.3,30.12,SSW,195,0.0,0.0,94,0.00,,,0.00,dv,2013-08-27 10:55:00,
2013-08-27 07:00:00,62.6,61.0,30.12,SSW,195,0.0,0.0,93,0.00,,,0.00,dv,2013-08-27 11:00:00,
2013-08-27 07:05:00,62.6,61.0,30.11,SSW,195,0.0,0.0,93,0.00,,,0.00,dv,2013-08-27 11:05:00,
2013-08-27 07:10:00,62.6,61.3,30.11,SSW,195,0.0,0.0,94,0.00,,,0.00,dv,2013-08-27 11:10:00,
2013-08-27 07:15:00,62.6,61.0,30.11,SSW,195,0.0,0.0,93,0.00,,,0.00,dv,2013-08-27 11:15:00,
2013-08-27 07:20:00,62.6,61.0,30.11,SSW,196,0.0,0.0,93,0.00,,,0.00,dv,2013-08-27 11:20:00,
2013-08-27 07:25:00,62.6,61.3,30.11,SSW,196,0.0,0.0,94,0.00,,,0.00,dv,2013-08-27 11:25:00,
2013-08-27 07:30:00,62.5,61.2,30.11,SSW,195,0.0,0.0,94,0.00,,,0.00,dv,2013-08-27 11:30:00,
2013-08-27 07:35:00,62.5,61.2,30.11,SSW,195,0.0,0.0,94,0.00,,,0.00,dv,2013-08-27 11:35:00,
2013-08-27 07:40:00,62.5,61.2,30.11,SSW,196,0.0,0.0,94,0.00,,,0.00,dv,2013-08-27 11:40:00,
2013-08-27 07:45:00,62.7,61.6,30.11,SSW,195,0.0,0.0,95,0.00,,,0.00,dv,2013-08-27 11:45:00,
2013-08-27 07:50:00,62.7,61.6,30.12,SSW,195,0.0,0.0,95,0.00,,,0.00,dv,2013-08-27 11:50:00,
2013-08-27 07:55:00,62.8,61.7,30.12,SSW,196,0.0,0.0,95,0.00,,,0.00,dv,2013-08-27 11:55:00,
2013-08-27 08:00:00,62.9,61.8,30.12,SSW,196,0.0,0.0,95,0.00,,,0.00,dv,2013-08-27 12:00:00,
2013-08-27 08:05:00,63.1,62.0,30.12,SSW,195,0.0,0.0,95,0.00,,,0.00,dv,2013-08-27 12:05:00,
2013-08-27 08:10:00,63.1,62.2,30.11,SSW,196,0.0,0.0,96,0.00,,,0.00,dv,2013-08-27 12:10:00,
2013-08-27 08:15:00,63.4,62.3,30.12,SSW,195,0.0,0.0,95,0.00,,,0.00,dv,2013-08-27 12:15:00,
2013-08-27 08:20:00,63.5,62.6,30.11,SSW,195,0.0,0.0,96,0.00,,,0.00,dv,2013-08-27 12:20:00,
2013-08-27 08:25:00,63.6,62.7,30.12,SSW,195,0.0,0.0,96,0.00,,,0.00,dv,2013-08-27 12:25:00,
2013-08-27 08:30:00,63.8,62.9,30.11,SSW,195,0.0,0.0,96,0.00,,,0.00,dv,2013-08-27 12:30:00,
2013-08-27 08:35:00,63.9,63.0,30.11,SSW,195,0.0,0.0,96,0.00,,,0.00,dv,2013-08-27 12:35:00,
2013-08-27 08:40:00,63.9,63.0,30.12,SSW,195,0.0,0.0,96,0.00,,,0.00,dv,2013-08-27 12:40:00,
2013-08-27 08:45:00,64.1,63.2,30.12,SSW,195,0.0,0.0,96,0.00,,,0.00,dv,2013-08-27 12:45:00,
2013-08-27 08:50:00,64.2,63.1,30.11,SSW,195,0.0,0.0,95,0.00,,,0.00,dv,2013-08-27 12:50:00,
2013-08-27 08:55:00,64.3,63.2,30.11,SE,131,1.6,1.6,95,0.00,,,0.00,dv,2013-08-27 12:55:00,
2013-08-27 09:00:00,64.4,63.3,30.11,SE,131,0.0,0.0,95,0.00,,,0.00,dv,2013-08-27 13:00:00,
2013-08-27 09:05:00,64.6,63.5,30.11,SE,131,0.0,0.0,95,0.00,,,0.00,dv,2013-08-27 13:05:00,
2013-08-27 09:10:00,64.7,63.6,30.11,SE,131,0.0,0.0,95,0.00,,,0.00,dv,2013-08-27 13:10:00,
2013-08-27 09:15:00,64.8,63.7,30.11,SE,131,0.0,0.0,95,0.00,,,0.00,dv,2013-08-27 13:15:00,
2013-08-27 09:20:00,65.0,63.9,30.11,SE,131,0.0,0.0,95,0.00,,,0.00,dv,2013-08-27 13:20:00,
2013-08-27 09:25:00,65.2,64.1,30.12,SE,131,0.0,0.0,95,0.00,,,0.00,dv,2013-08-27 13:25:00,
2013-08-27 09:30:00,65.5,64.6,30.11,SE,131,0.0,0.0,96,0.00,,,0.00,dv,2013-08-27 13:30:00,
2013-08-27 09:35:00,65.8,64.9,30.11,SE,131,0.0,0.0,96,0.00,,,0.00,dv,2013-08-27 13:35:00,
2013-08-27 09:40:00,66.0,64.9,30.11,SE,131,0.0,0.0,95,0.00,,,0.00,dv,2013-08-27 13:40:00,
2013-08-27 09:45:00,66.3,65.2,30.11,SE,131,0.0,0.0,95,0.00,,,0.00,dv,2013-08-27 13:45:00,
2013-08-27 09:50:00,66.5,65.1,30.11,SE,131,0.0,0.0,94,0.00,,,0.00,dv,2013-08-27 13:50:00,
2013-08-27 09:55:00,66.8,65.7,30.12,SE,131,0.0,0.0,95,0.00,,,0.00,dv,2013-08-27 13:55:00,
2013-08-27 10:00:00,67.0,65.6,30.11,SE,131,0.0,0.0,94,0.00,,,0.00,dv,2013-08-27 14:00:00,
2013-08-27 10:05:00,67.4,66.0,30.11,SE,131,0.0,0.0,94,0.00,,,0.00,dv,2013-08-27 14:05:00,
2013-08-27 10:10:00,67.7,66.3,30.11,SE,131,0.0,0.0,94,0.00,,,0.00,dv,2013-08-27 14:10:00,
2013-08-27 10:15:00,68.2,66.6,30.11,SE,131,0.0,0.0,93,0.00,,,0.00,dv,2013-08-27 14:15:00,
2013-08-27 10:20:00,68.7,67.1,30.11,SSE,164,1.6,1.6,93,0.00,,,0.00,dv,2013-08-27 14:20:00,
2013-08-27 10:25:00,69.1,66.7,30.11,SSE,164,1.6,1.6,90,0.00,,,0.00,dv,2013-08-27 14:25:00,
2013-08-27 10:30:00,69.6,67.2,30.11,SSE,165,0.0,0.0,90,0.00,,,0.00,dv,2013-08-27 14:30:00,
2013-08-27 10:35:00,70.1,67.2,30.11,SSE,164,1.6,1.6,88,0.00,,,0.00,dv,2013-08-27 14:35:00,
2013-08-27 10:40:00,70.7,67.8,30.11,SSE,164,0.0,0.0,88,0.00,,,0.00,dv,2013-08-27 14:40:00,
2013-08-27 10:45:00,71.1,67.9,30.12,SSE,164,0.0,0.0,87,0.00,,,0.00,dv,2013-08-27 14:45:00,
2013-08-27 10:50:00,71.5,68.1,30.11,SSE,165,0.0,0.0,86,0.00,,,0.00,dv,2013-08-27 14:50:00,
2013-08-27 10:55:00,71.7,67.7,30.11,SSE,165,1.6,1.6,84,0.00,,,0.00,dv,2013-08-27 14:55:00,
2013-08-27 11:00:00,72.0,67.7,30.11,SSE,164,0.0,0.0,83,0.00,,,0.00,dv,2013-08-27 15:00:00,
2013-08-27 11:05:00,72.5,68.5,30.11,SSE,164,0.0,0.0,84,0.00,,,0.00,dv,2013-08-27 15:05:00,
2013-08-27 11:10:00,72.8,68.0,30.11,SSE,164,1.6,1.6,81,0.00,,,0.00,dv,2013-08-27 15:10:00,
2013-08-27 11:15:00,73.2,68.4,30.11,SSE,164,0.0,0.0,81,0.00,,,0.00,dv,2013-08-27 15:15:00,
2013-08-27 11:20:00,73.5,68.4,30.11,SSE,164,0.0,0.0,80,0.00,,,0.00,dv,2013-08-27 15:20:00,
2013-08-27 11:25:00,73.9,69.0,30.11,SSE,165,0.0,0.0,81,0.00,,,0.00,dv,2013-08-27 15:25:00,
2013-08-27 11:30:00,74.2,68.5,30.11,SE,146,3.2,3.2,78,0.00,,,0.00,dv,2013-08-27 15:30:00,
2013-08-27 11:35:00,74.5,68.2,30.10,SSW,202,1.6,1.6,76,0.00,,,0.00,dv,2013-08-27 15:35:00,
2013-08-27 11:40:00,75.0,68.9,30.11,SSW,201,1.6,1.6,77,0.00,,,0.00,dv,2013-08-27 15:40:00,
2013-08-27 11:45:00,75.2,68.8,30.11,SSW,202,1.6,1.6,76,0.00,,,0.00,dv,2013-08-27 15:45:00,
2013-08-27 11:50:00,75.5,69.4,30.11,SSW,202,0.0,0.0,77,0.00,,,0.00,dv,2013-08-27 15:50:00,
2013-08-27 11:55:00,75.6,67.7,30.10,WSW,248,3.2,3.2,71,0.00,,,0.00,dv,2013-08-27 15:55:00,
2013-08-27 12:00:00,75.8,67.5,30.11,WSW,249,0.0,0.0,70,0.00,,,0.00,dv,2013-08-27 16:00:00,
2013-08-27 12:10:00,76.3,69.0,30.11,WSW,249,0.0,0.0,73,0.00,,,0.00,dv,2013-08-27 16:10:00,
2013-08-27 12:15:00,76.5,69.2,30.11,WSW,249,0.0,0.0,73,0.00,,,0.00,dv,2013-08-27 16:15:00,
2013-08-27 12:20:00,76.7,69.4,30.11,WSW,249,0.0,0.0,73,0.00,,,0.00,dv,2013-08-27 16:20:00,
2013-08-27 12:25:00,76.9,69.2,30.10,WSW,249,0.0,0.0,72,0.00,,,0.00,dv,2013-08-27 16:25:00,
2013-08-27 12:30:00,77.0,69.6,30.10,WSW,249,0.0,0.0,73,0.00,,,0.00,dv,2013-08-27 16:30:00,
2013-08-27 12:35:00,77.2,69.8,30.10,WSW,249,1.6,1.6,73,0.00,,,0.00,dv,2013-08-27 16:35:00,
2013-08-27 12:40:00,77.3,68.6,30.09,WSW,249,0.0,0.0,69,0.00,,,0.00,dv,2013-08-27 16:40:00,
2013-08-27 12:45:00,77.5,69.5,30.09,WSW,248,0.0,0.0,71,0.00,,,0.00,dv,2013-08-27 16:45:00,
2013-08-27 12:50:00,77.6,68.6,30.09,WSW,249,0.0,0.0,68,0.00,,,0.00,dv,2013-08-27 16:50:00,
2013-08-27 12:55:00,77.8,68.4,30.09,WSW,249,0.0,0.0,67,0.00,,,0.00,dv,2013-08-27 16:55:00,
2013-08-27 13:00:00,78.0,69.3,30.09,WSW,250,3.2,3.2,69,0.00,,,0.00,dv,2013-08-27 17:00:00,
2013-08-27 13:05:00,78.2,68.5,30.09,WSW,249,1.6,1.6,66,0.00,,,0.00,dv,2013-08-27 17:05:00,
2013-08-27 13:10:00,78.3,68.6,30.09,WSW,250,0.0,0.0,66,0.00,,,0.00,dv,2013-08-27 17:10:00,
2013-08-27 13:15:00,78.5,68.1,30.09,SW,233,1.6,1.6,64,0.00,,,0.00,dv,2013-08-27 17:15:00,
2013-08-27 13:20:00,78.7,68.3,30.09,SW,233,0.0,0.0,64,0.00,,,0.00,dv,2013-08-27 17:20:00,
2013-08-27 13:25:00,78.9,68.4,30.08,SW,233,0.0,0.0,64,0.00,,,0.00,dv,2013-08-27 17:25:00,
2013-08-27 13:30:00,79.1,68.3,30.08,SW,235,0.0,0.0,63,0.00,,,0.00,dv,2013-08-27 17:30:00,
2013-08-27 13:35:00,79.3,67.7,30.08,SW,235,1.6,1.6,61,0.00,,,0.00,dv,2013-08-27 17:35:00,
2013-08-27 13:40:00,79.6,68.7,30.08,SW,235,0.0,0.0,63,0.00,,,0.00,dv,2013-08-27 17:40:00,
2013-08-27 13:45:00,79.8,68.6,30.08,WSW,257,1.6,1.6,62,0.00,,,0.00,dv,2013-08-27 17:45:00,
2013-08-27 13:50:00,80.0,68.7,30.08,West,260,3.2,3.2,62,0.00,,,0.00,dv,2013-08-27 17:50:00,
2013-08-27 13:55:00,80.0,69.1,30.08,West,260,1.6,1.6,63,0.00,,,0.00,dv,2013-08-27 17:55:00,
2013-08-27 14:00:00,80.1,69.9,30.07,West,260,0.0,0.0,65,0.00,,,0.00,dv,2013-08-27 18:00:00,
2013-08-27 14:05:00,80.0,69.1,30.08,West,260,0.0,0.0,63,0.00,,,0.00,dv,2013-08-27 18:05:00,
2013-08-27 14:10:00,79.8,69.3,30.07,West,260,1.6,1.6,64,0.00,,,0.00,dv,2013-08-27 18:10:00,
2013-08-27 14:15:00,79.7,68.8,30.07,West,260,0.0,0.0,63,0.00,,,0.00,dv,2013-08-27 18:15:00,
2013-08-27 14:20:00,79.5,68.6,30.07,West,260,0.0,0.0,63,0.00,,,0.00,dv,2013-08-27 18:20:00,
2013-08-27 14:25:00,79.4,68.5,30.07,West,260,0.0,0.0,63,0.00,,,0.00,dv,2013-08-27 18:25:00,
2013-08-27 14:30:00,79.5,69.4,30.07,West,260,0.0,0.0,65,0.00,,,0.00,dv,2013-08-27 18:30:00,
2013-08-27 14:35:00,79.6,69.4,30.07,West,260,0.0,0.0,65,0.00,,,0.00,dv,2013-08-27 18:35:00,
2013-08-27 14:40:00,79.9,69.4,30.07,West,259,0.0,0.0,64,0.00,,,0.00,dv,2013-08-27 18:40:00,
2013-08-27 14:45:00,80.1,69.6,30.06,West,260,0.0,0.0,64,0.00,,,0.00,dv,2013-08-27 18:45:00,
2013-08-27 14:50:00,80.5,70.3,30.06,West,260,1.6,1.6,65,0.00,,,0.00,dv,2013-08-27 18:50:00,
2013-08-27 14:55:00,80.7,70.5,30.06,West,260,0.0,0.0,65,0.00,,,0.00,dv,2013-08-27 18:55:00,
2013-08-27 15:00:00,80.7,70.5,30.05,West,260,0.0,0.0,65,0.00,,,0.00,dv,2013-08-27 19:00:00,
2013-08-27 15:05:00,80.8,70.6,30.05,West,260,1.6,1.6,65,0.00,,,0.00,dv,2013-08-27 19:05:00,
2013-08-27 15:10:00,81.1,70.1,30.04,West,260,1.6,1.6,63,0.00,,,0.00,dv,2013-08-27 19:10:00,
2013-08-27 15:15:00,81.2,70.2,30.04,West,260,0.0,0.0,63,0.00,,,0.00,dv,2013-08-27 19:15:00,
2013-08-27 15:20:00,81.3,70.7,30.05,West,260,0.0,0.0,64,0.00,,,0.00,dv,2013-08-27 19:20:00,
2013-08-27 15:25:00,81.3,69.6,30.04,West,260,0.0,0.0,61,0.00,,,0.00,dv,2013-08-27 19:25:00,
2013-08-27 15:30:00,81.5,69.8,30.04,West,260,0.0,0.0,61,0.00,,,0.00,dv,2013-08-27 19:30:00,
2013-08-27 15:35:00,81.6,70.6,30.04,West,266,1.6,1.6,63,0.00,,,0.00,dv,2013-08-27 19:35:00,
2013-08-27 15:40:00,81.6,69.5,30.04,West,266,0.0,0.0,60,0.00,,,0.00,dv,2013-08-27 19:40:00,
2013-08-27 15:45:00,81.7,70.0,30.03,West,269,1.6,1.6,61,0.00,,,0.00,dv,2013-08-27 19:45:00,
2013-08-27 15:50:00,81.8,69.7,30.04,NW,309,3.2,3.2,60,0.00,,,0.00,dv,2013-08-27 19:50:00,
2013-08-27 15:55:00,82.0,70.6,30.03,NW,309,1.6,1.6,62,0.00,,,0.00,dv,2013-08-27 19:55:00,
2013-08-27 16:00:00,82.2,70.4,30.03,NW,309,0.0,0.0,61,0.00,,,0.00,dv,2013-08-27 20:00:00,
2013-08-27 16:05:00,82.4,70.2,30.03,NW,310,1.6,1.6,60,0.00,,,0.00,dv,2013-08-27 20:05:00,
2013-08-27 16:10:00,82.5,69.5,30.03,NW,309,1.6,1.6,58,0.00,,,0.00,dv,2013-08-27 20:10:00,
2013-08-27 16:15:00,82.6,70.8,30.03,NW,309,0.0,0.0,61,0.00,,,0.00,dv,2013-08-27 20:15:00,
2013-08-27 16:20:00,82.6,71.5,30.03,NW,309,0.0,0.0,63,0.00,,,0.00,dv,2013-08-27 20:20:00,
2013-08-27 16:25:00,82.4,71.0,30.03,NW,309,0.0,0.0,62,0.00,,,0.00,dv,2013-08-27 20:25:00,
2013-08-27 16:30:00,82.0,69.9,30.03,NW,309,0.0,0.0,60,0.00,,,0.00,dv,2013-08-27 20:30:00,
2013-08-27 16:35:00,81.8,70.4,30.03,NW,309,0.0,0.0,62,0.00,,,0.00,dv,2013-08-27 20:35:00,
2013-08-27 16:40:00,81.6,69.5,30.03,NW,309,0.0,0.0,60,0.00,,,0.00,dv,2013-08-27 20:40:00,
2013-08-27 16:45:00,81.6,69.9,30.03,NW,309,0.0,0.0,61,0.00,,,0.00,dv,2013-08-27 20:45:00,
2013-08-27 16:50:00,81.6,69.9,30.03,NW,309,1.6,1.6,61,0.00,,,0.00,dv,2013-08-27 20:50:00,
2013-08-27 16:55:00,81.4,70.0,30.03,NW,309,1.6,1.6,62,0.00,,,0.00,dv,2013-08-27 20:55:00,
2013-08-27 17:00:00,81.0,69.3,30.03,NW,309,1.6,1.6,61,0.00,,,0.00,dv,2013-08-27 21:00:00,
2013-08-27 17:05:00,80.8,69.9,30.03,NW,309,1.6,1.6,63,0.00,,,0.00,dv,2013-08-27 21:05:00,
2013-08-27 17:20:00,81.0,70.0,30.02,NW,309,0.0,0.0,63,0.00,,,0.00,dv,2013-08-27 21:20:00,
2013-08-27 17:25:00,81.1,70.9,30.03,NW,309,0.0,0.0,65,0.00,,,0.00,dv,2013-08-27 21:25:00,
2013-08-27 17:35:00,81.1,70.1,30.02,NW,309,0.0,0.0,63,0.00,,,0.00,dv,2013-08-27 21:35:00,
2013-08-27 17:45:00,81.1,71.6,30.02,NW,309,0.0,0.0,67,0.00,,,0.00,dv,2013-08-27 21:45:00,
2013-08-27 17:55:00,80.9,71.0,30.03,NW,309,0.0,0.0,66,0.00,,,0.00,dv,2013-08-27 21:55:00,
2013-08-27 18:00:00,80.9,72.0,30.03,NW,309,0.0,0.0,69,0.00,,,0.00,dv,2013-08-27 22:00:00,
2013-08-27 18:05:00,80.8,72.3,30.03,NW,309,0.0,0.0,70,0.00,,,0.00,dv,2013-08-27 22:05:00,
2013-08-27 18:15:00,80.6,71.4,30.02,NW,309,0.0,0.0,68,0.00,,,0.00,dv,2013-08-27 22:15:00,
2013-08-27 18:25:00,80.4,71.2,30.03,NW,309,0.0,0.0,68,0.00,,,0.00,dv,2013-08-27 22:25:00,
2013-08-27 18:30:00,80.4,71.6,30.03,NW,309,0.0,0.0,69,0.00,,,0.00,dv,2013-08-27 22:30:00,
2013-08-27 18:35:00,80.3,72.1,30.02,NW,309,0.0,0.0,71,0.00,,,0.00,dv,2013-08-27 22:35:00,
2013-08-27 18:40:00,80.1,72.3,30.02,NW,309,0.0,0.0,72,0.00,,,0.00,dv,2013-08-27 22:40:00,
2013-08-27 18:45:00,79.9,72.4,30.02,NW,309,0.0,0.0,73,0.00,,,0.00,dv,2013-08-27 22:45:00,
2013-08-27 18:50:00,79.5,72.3,30.02,NW,309,0.0,0.0,74,0.00,,,0.00,dv,2013-08-27 22:50:00,
2013-08-27 18:55:00,79.0,71.9,30.02,NW,309,0.0,0.0,74,0.00,,,0.00,dv,2013-08-27 22:55:00,
2013-08-27 19:00:00,78.5,71.4,30.02,NW,309,0.0,0.0,74,0.00,,,0.00,dv,2013-08-27 23:00:00,
2013-08-27 19:05:00,78.3,71.8,30.02,NW,309,0.0,0.0,76,0.00,,,0.00,dv,2013-08-27 23:05:00,
2013-08-27 19:10:00,78.0,71.5,30.02,NW,309,0.0,0.0,76,0.00,,,0.00,dv,2013-08-27 23:10:00,
2013-08-27 19:15:00,77.7,71.5,30.02,NW,309,0.0,0.0,77,0.00,,,0.00,dv,2013-08-27 23:15:00,
2013-08-27 19:20:00,77.4,71.6,30.02,NW,309,0.0,0.0,78,0.00,,,0.00,dv,2013-08-27 23:20:00,
2013-08-27 19:25:00,77.2,71.7,30.02,NW,309,0.0,0.0,79,0.00,,,0.00,dv,2013-08-27 23:25:00,
2013-08-27 19:30:00,77.0,71.5,30.02,NW,309,0.0,0.0,79,0.00,,,0.00,dv,2013-08-27 23:30:00,
2013-08-27 19:35:00,76.7,71.5,30.02,NW,309,0.0,0.0,80,0.00,,,0.00,dv,2013-08-27 23:35:00,
2013-08-27 19:40:00,76.5,71.3,30.02,NW,309,0.0,0.0,80,0.00,,,0.00,dv,2013-08-27 23:40:00,
2013-08-27 19:45:00,76.2,71.3,30.02,NW,309,0.0,0.0,81,0.00,,,0.00,dv,2013-08-27 23:45:00,
2013-08-27 19:50:00,76.1,71.2,30.02,NW,309,0.0,0.0,81,0.00,,,0.00,dv,2013-08-27 23:50:00,
2013-08-27 19:55:00,75.8,70.9,30.02,NW,309,0.0,0.0,81,0.00,,,0.00,dv,2013-08-27 23:55:00,
2013-08-27 20:00:00,75.7,71.1,30.02,NW,309,0.0,0.0,82,0.00,,,0.00,dv,2013-08-28 00:00:00,
2013-08-27 20:05:00,75.4,70.8,30.02,NW,309,0.0,0.0,82,0.00,,,0.00,dv,2013-08-28 00:05:00,
2013-08-27 20:10:00,75.3,70.7,30.03,NW,309,0.0,0.0,82,0.00,,,0.00,dv,2013-08-28 00:10:00,
2013-08-27 20:15:00,75.1,70.5,30.03,NW,309,0.0,0.0,82,0.00,,,0.00,dv,2013-08-28 00:15:00,
2013-08-27 20:20:00,74.9,70.3,30.03,NW,309,0.0,0.0,82,0.00,,,0.00,dv,2013-08-28 00:20:00,
2013-08-27 20:25:00,74.6,70.3,30.03,NW,309,0.0,0.0,83,0.00,,,0.00,dv,2013-08-28 00:25:00,
2013-08-27 20:30:00,74.3,70.0,30.03,NW,309,0.0,0.0,83,0.00,,,0.00,dv,2013-08-28 00:30:00,
2013-08-27 20:35:00,74.1,69.8,30.03,NW,309,0.0,0.0,83,0.00,,,0.00,dv,2013-08-28 00:35:00,
2013-08-27 20:40:00,74.0,69.7,30.03,NW,309,0.0,0.0,83,0.00,,,0.00,dv,2013-08-28 00:40:00,
2013-08-27 20:45:00,73.8,69.8,30.03,NW,309,0.0,0.0,84,0.00,,,0.00,dv,2013-08-28 00:45:00,
2013-08-27 20:50:00,73.7,69.7,30.03,NW,309,0.0,0.0,84,0.00,,,0.00,dv,2013-08-28 00:50:00,
2013-08-27 20:55:00,73.6,69.6,30.03,NW,309,0.0,0.0,84,0.00,,,0.00,dv,2013-08-28 00:55:00,
2013-08-27 21:00:00,73.4,69.4,30.03,NW,309,0.0,0.0,84,0.00,,,0.00,dv,2013-08-28 01:00:00,
2013-08-27 21:05:00,73.3,69.3,30.03,NW,309,0.0,0.0,84,0.00,,,0.00,dv,2013-08-28 01:05:00,
2013-08-27 21:10:00,73.2,69.2,30.03,NW,309,0.0,0.0,84,0.00,,,0.00,dv,2013-08-28 01:10:00,
2013-08-27 21:20:00,72.9,69.2,30.03,NW,309,0.0,0.0,85,0.00,,,0.00,dv,2013-08-28 01:20:00,
2013-08-27 21:25:00,72.8,69.1,30.04,NW,309,0.0,0.0,85,0.00,,,0.00,dv,2013-08-28 01:25:00,
2013-08-27 21:30:00,72.7,69.0,30.03,NW,309,0.0,0.0,85,0.00,,,0.00,dv,2013-08-28 01:30:00,
2013-08-27 22:00:00,72.3,69.1,30.04,NW,309,0.0,0.0,87,0.00,,,0.00,dv,2013-08-28 02:00:00,
2013-08-27 22:10:00,72.1,68.9,30.04,NW,309,0.0,0.0,87,0.00,,,0.00,dv,2013-08-28 02:10:00,
2013-08-27 22:20:00,71.8,68.6,30.05,NW,309,0.0,0.0,87,0.00,,,0.00,dv,2013-08-28 02:20:00,
2013-08-27 22:25:00,71.8,68.6,30.04,NW,309,0.0,0.0,87,0.00,,,0.00,dv,2013-08-28 02:25:00,
2013-08-27 22:30:00,71.7,68.5,30.05,NW,309,0.0,0.0,87,0.00,,,0.00,dv,2013-08-28 02:30:00,
2013-08-27 22:35:00,71.6,68.4,30.05,NW,309,0.0,0.0,87,0.00,,,0.00,dv,2013-08-28 02:35:00,
2013-08-27 22:40:00,71.5,68.3,30.05,NW,309,0.0,0.0,87,0.00,,,0.00,dv,2013-08-28 02:40:00,
2013-08-27 22:45:00,71.4,68.5,30.05,NW,309,0.0,0.0,88,0.00,,,0.00,dv,2013-08-28 02:45:00,
2013-08-27 22:50:00,71.3,68.4,30.05,NW,309,0.0,0.0,88,0.00,,,0.00,dv,2013-08-28 02:50:00,
2013-08-27 22:55:00,71.2,68.3,30.05,NW,309,0.0,0.0,88,0.00,,,0.00,dv,2013-08-28 02:55:00,
2013-08-27 23:00:00,71.2,68.3,30.06,NW,309,0.0,0.0,88,0.00,,,0.00,dv,2013-08-28 03:00:00,
2013-08-27 23:05:00,71.1,68.4,30.05,NW,309,0.0,0.0,89,0.00,,,0.00,dv,2013-08-28 03:05:00,
2013-08-27 23:10:00,70.9,68.2,30.06,NW,309,0.0,0.0,89,0.00,,,0.00,dv,2013-08-28 03:10:00,
2013-08-27 23:15:00,70.9,68.2,30.06,NW,309,0.0,0.0,89,0.00,,,0.00,dv,2013-08-28 03:15:00,
2013-08-27 23:20:00,70.8,68.4,30.05,NW,309,0.0,0.0,90,0.00,,,0.00,dv,2013-08-28 03:20:00,
2013-08-27 23:25:00,70.7,68.3,30.06,NW,309,0.0,0.0,90,0.00,,,0.00,dv,2013-08-28 03:25:00,
2013-08-27 23:30:00,70.6,68.2,30.05,NW,309,0.0,0.0,90,0.00,,,0.00,dv,2013-08-28 03:30:00,
2013-08-27 23:35:00,70.5,68.1,30.05,NW,309,0.0,0.0,90,0.00,,,0.00,dv,2013-08-28 03:35:00,
2013-08-27 23:40:00,70.4,68.0,30.05,NW,309,0.0,0.0,90,0.00,,,0.00,dv,2013-08-28 03:40:00,
2013-08-27 23:45:00,70.3,68.2,30.05,NW,309,0.0,0.0,91,0.00,,,0.00,dv,2013-08-28 03:45:00,
2013-08-27 23:50:00,70.3,68.2,30.04,NW,309,0.0,0.0,91,0.00,,,0.00,dv,2013-08-28 03:50:00,
2013-08-27 23:55:00,70.3,68.2,30.04,NW,309,0.0,0.0,91,0.00,,,0.00,dv,2013-08-28 03:55:00,